sensor_id;sensor_type;location;lat;lon;timestamp;temperature;humidity
25214;DHT22;13160;51.834;4.706;2023-07-16T00:02:09;18.80;99.50
25214;DHT22;13160;51.834;4.706;2023-07-16T00:04:41;18.70;99.50
25214;DHT22;13160;51.834;4.706;2023-07-16T00:07:10;18.70;99.80
25214;DHT22;13160;51.834;4.706;2023-07-16T00:09:40;18.70;99.50
25214;DHT22;13160;51.834;4.706;2023-07-16T00:12:19;18.70;99.50
25214;DHT22;13160;51.834;4.706;2023-07-16T00:14:50;18.70;99.60
25214;DHT22;13160;51.834;4.706;2023-07-16T00:17:19;18.70;99.60
25214;DHT22;13160;51.834;4.706;2023-07-16T00:19:51;18.70;99.60
25214;DHT22;13160;51.834;4.706;2023-07-16T00:22:35;18.70;99.60
25214;DHT22;13160;51.834;4.706;2023-07-16T00:25:07;18.70;99.60
25214;DHT22;13160;51.834;4.706;2023-07-16T00:27:35;18.70;99.60
25214;DHT22;13160;51.834;4.706;2023-07-16T00:30:08;18.70;99.60
25214;DHT22;13160;51.834;4.706;2023-07-16T00:32:38;18.70;99.70
25214;DHT22;13160;51.834;4.706;2023-07-16T00:35:19;18.70;99.80
25214;DHT22;13160;51.834;4.706;2023-07-16T00:38:06;18.70;99.80
25214;DHT22;13160;51.834;4.706;2023-07-16T00:40:36;18.60;99.70
25214;DHT22;13160;51.834;4.706;2023-07-16T00:43:04;18.60;99.80
25214;DHT22;13160;51.834;4.706;2023-07-16T00:45:46;18.60;99.80
25214;DHT22;13160;51.834;4.706;2023-07-16T00:48:30;18.60;99.90
25214;DHT22;13160;51.834;4.706;2023-07-16T00:51:00;18.60;99.90
25214;DHT22;13160;51.834;4.706;2023-07-16T00:53:30;18.60;99.90
25214;DHT22;13160;51.834;4.706;2023-07-16T00:55:59;18.70;99.90
25214;DHT22;13160;51.834;4.706;2023-07-16T00:58:28;18.60;99.90
25214;DHT22;13160;51.834;4.706;2023-07-16T01:00:58;18.60;99.90
25214;DHT22;13160;51.834;4.706;2023-07-16T01:03:27;18.60;99.90
25214;DHT22;13160;51.834;4.706;2023-07-16T01:06:01;18.60;99.90
25214;DHT22;13160;51.834;4.706;2023-07-16T01:08:38;18.50;99.90
25214;DHT22;13160;51.834;4.706;2023-07-16T01:11:09;18.50;99.90
25214;DHT22;13160;51.834;4.706;2023-07-16T01:13:38;18.60;99.90
25214;DHT22;13160;51.834;4.706;2023-07-16T01:16:18;18.60;99.90
25214;DHT22;13160;51.834;4.706;2023-07-16T01:18:48;18.50;99.90
25214;DHT22;13160;51.834;4.706;2023-07-16T01:21:20;18.50;99.90
25214;DHT22;13160;51.834;4.706;2023-07-16T01:24:01;18.50;99.90
25214;DHT22;13160;51.834;4.706;2023-07-16T01:27:04;18.50;99.90
25214;DHT22;13160;51.834;4.706;2023-07-16T01:30:00;18.50;99.90
25214;DHT22;13160;51.834;4.706;2023-07-16T01:32:30;18.50;99.90
25214;DHT22;13160;51.834;4.706;2023-07-16T01:35:00;18.50;99.90
25214;DHT22;13160;51.834;4.706;2023-07-16T01:37:30;18.50;99.90
25214;DHT22;13160;51.834;4.706;2023-07-16T01:40:00;18.50;99.90
25214;DHT22;13160;51.834;4.706;2023-07-16T01:42:29;18.50;99.90
25214;DHT22;13160;51.834;4.706;2023-07-16T01:45:03;18.40;99.90
25214;DHT22;13160;51.834;4.706;2023-07-16T01:47:40;18.40;99.90
25214;DHT22;13160;51.834;4.706;2023-07-16T01:50:14;18.40;99.90
25214;DHT22;13160;51.834;4.706;2023-07-16T01:52:43;18.40;99.90
25214;DHT22;13160;51.834;4.706;2023-07-16T01:55:14;18.40;99.90
25214;DHT22;13160;51.834;4.706;2023-07-16T01:57:43;18.40;99.90
25214;DHT22;13160;51.834;4.706;2023-07-16T02:00:13;18.40;99.90
25214;DHT22;13160;51.834;4.706;2023-07-16T02:02:42;18.40;99.90
25214;DHT22;13160;51.834;4.706;2023-07-16T02:05:11;18.50;99.90
25214;DHT22;13160;51.834;4.706;2023-07-16T02:07:40;18.50;99.90
25214;DHT22;13160;51.834;4.706;2023-07-16T02:10:09;18.40;99.90
25214;DHT22;13160;51.834;4.706;2023-07-16T02:12:38;18.50;99.90
25214;DHT22;13160;51.834;4.706;2023-07-16T02:15:07;18.50;99.90
25214;DHT22;13160;51.834;4.706;2023-07-16T02:17:38;18.40;99.90
25214;DHT22;13160;51.834;4.706;2023-07-16T02:20:08;18.40;99.90
25214;DHT22;13160;51.834;4.706;2023-07-16T02:22:51;18.40;99.90
25214;DHT22;13160;51.834;4.706;2023-07-16T02:25:20;18.40;99.90
25214;DHT22;13160;51.834;4.706;2023-07-16T02:27:59;18.40;99.90
25214;DHT22;13160;51.834;4.706;2023-07-16T02:30:41;18.40;99.90
25214;DHT22;13160;51.834;4.706;2023-07-16T02:33:11;18.40;99.90
25214;DHT22;13160;51.834;4.706;2023-07-16T02:35:40;18.30;99.90
25214;DHT22;13160;51.834;4.706;2023-07-16T02:38:14;18.30;99.90
25214;DHT22;13160;51.834;4.706;2023-07-16T02:40:43;18.30;99.90
25214;DHT22;13160;51.834;4.706;2023-07-16T02:43:12;18.30;99.90
25214;DHT22;13160;51.834;4.706;2023-07-16T02:45:41;18.30;99.90
25214;DHT22;13160;51.834;4.706;2023-07-16T02:48:12;18.30;99.90
25214;DHT22;13160;51.834;4.706;2023-07-16T02:50:41;18.30;99.90
25214;DHT22;13160;51.834;4.706;2023-07-16T02:53:10;18.20;99.90
25214;DHT22;13160;51.834;4.706;2023-07-16T02:55:39;18.30;99.90
25214;DHT22;13160;51.834;4.706;2023-07-16T02:58:08;18.20;99.90
25214;DHT22;13160;51.834;4.706;2023-07-16T03:00:36;18.30;99.90
25214;DHT22;13160;51.834;4.706;2023-07-16T03:03:10;18.30;99.90
25214;DHT22;13160;51.834;4.706;2023-07-16T03:05:51;18.30;99.90
25214;DHT22;13160;51.834;4.706;2023-07-16T03:08:20;18.20;99.90
25214;DHT22;13160;51.834;4.706;2023-07-16T03:10:49;18.20;99.90
25214;DHT22;13160;51.834;4.706;2023-07-16T03:13:18;18.20;99.90
25214;DHT22;13160;51.834;4.706;2023-07-16T03:15:47;18.20;99.90
25214;DHT22;13160;51.834;4.706;2023-07-16T03:18:18;18.20;99.90
25214;DHT22;13160;51.834;4.706;2023-07-16T03:20:50;18.20;99.90
25214;DHT22;13160;51.834;4.706;2023-07-16T03:23:23;18.20;99.90
25214;DHT22;13160;51.834;4.706;2023-07-16T03:25:52;18.20;99.90
25214;DHT22;13160;51.834;4.706;2023-07-16T03:28:26;18.20;99.90
25214;DHT22;13160;51.834;4.706;2023-07-16T03:30:55;18.10;99.90
25214;DHT22;13160;51.834;4.706;2023-07-16T03:33:31;18.10;99.90
25214;DHT22;13160;51.834;4.706;2023-07-16T03:36:05;18.10;99.90
25214;DHT22;13160;51.834;4.706;2023-07-16T03:38:35;18.10;99.90
25214;DHT22;13160;51.834;4.706;2023-07-16T03:41:18;18.10;99.90
25214;DHT22;13160;51.834;4.706;2023-07-16T03:43:48;18.00;99.90
25214;DHT22;13160;51.834;4.706;2023-07-16T03:46:23;18.00;99.90
25214;DHT22;13160;51.834;4.706;2023-07-16T03:49:08;18.10;99.90
25214;DHT22;13160;51.834;4.706;2023-07-16T03:51:49;18.00;99.90
25214;DHT22;13160;51.834;4.706;2023-07-16T03:54:18;18.00;99.90
25214;DHT22;13160;51.834;4.706;2023-07-16T03:56:47;18.00;99.90
25214;DHT22;13160;51.834;4.706;2023-07-16T03:59:27;18.00;99.90
25214;DHT22;13160;51.834;4.706;2023-07-16T04:02:00;18.00;99.90
25214;DHT22;13160;51.834;4.706;2023-07-16T04:04:46;17.90;99.90
25214;DHT22;13160;51.834;4.706;2023-07-16T04:07:17;18.00;99.90
25214;DHT22;13160;51.834;4.706;2023-07-16T04:09:46;18.00;99.90
25214;DHT22;13160;51.834;4.706;2023-07-16T04:12:22;17.90;99.90
25214;DHT22;13160;51.834;4.706;2023-07-16T04:15:00;17.90;99.90
25214;DHT22;13160;51.834;4.706;2023-07-16T04:17:33;17.90;99.90
25214;DHT22;13160;51.834;4.706;2023-07-16T04:20:04;17.90;99.90
25214;DHT22;13160;51.834;4.706;2023-07-16T04:22:41;17.90;99.90
25214;DHT22;13160;51.834;4.706;2023-07-16T04:25:27;17.90;99.90
25214;DHT22;13160;51.834;4.706;2023-07-16T04:28:33;17.90;99.90
25214;DHT22;13160;51.834;4.706;2023-07-16T04:31:02;17.90;99.90
25214;DHT22;13160;51.834;4.706;2023-07-16T04:33:31;17.90;99.90
25214;DHT22;13160;51.834;4.706;2023-07-16T04:36:25;17.90;99.90
25214;DHT22;13160;51.834;4.706;2023-07-16T04:39:04;17.90;99.90
25214;DHT22;13160;51.834;4.706;2023-07-16T04:41:33;17.90;99.90
25214;DHT22;13160;51.834;4.706;2023-07-16T04:44:02;17.90;99.90
25214;DHT22;13160;51.834;4.706;2023-07-16T04:46:33;17.90;99.90
25214;DHT22;13160;51.834;4.706;2023-07-16T04:49:05;17.90;99.90
25214;DHT22;13160;51.834;4.706;2023-07-16T04:51:38;17.90;99.90
25214;DHT22;13160;51.834;4.706;2023-07-16T04:54:12;18.00;99.90
25214;DHT22;13160;51.834;4.706;2023-07-16T04:56:41;17.90;99.90
25214;DHT22;13160;51.834;4.706;2023-07-16T04:59:10;17.90;99.90
25214;DHT22;13160;51.834;4.706;2023-07-16T05:01:39;17.90;99.90
25214;DHT22;13160;51.834;4.706;2023-07-16T05:04:08;17.90;99.90
25214;DHT22;13160;51.834;4.706;2023-07-16T05:06:46;17.90;99.90
25214;DHT22;13160;51.834;4.706;2023-07-16T05:09:27;18.00;99.90
25214;DHT22;13160;51.834;4.706;2023-07-16T05:12:07;18.00;99.90
25214;DHT22;13160;51.834;4.706;2023-07-16T05:14:51;17.90;99.90
25214;DHT22;13160;51.834;4.706;2023-07-16T05:17:22;18.00;99.90
25214;DHT22;13160;51.834;4.706;2023-07-16T05:19:51;18.00;99.90
25214;DHT22;13160;51.834;4.706;2023-07-16T05:22:21;18.00;99.90
25214;DHT22;13160;51.834;4.706;2023-07-16T05:24:50;18.10;99.90
25214;DHT22;13160;51.834;4.706;2023-07-16T05:27:44;18.00;99.90
25214;DHT22;13160;51.834;4.706;2023-07-16T05:30:13;18.00;99.90
25214;DHT22;13160;51.834;4.706;2023-07-16T05:32:48;18.00;99.90
25214;DHT22;13160;51.834;4.706;2023-07-16T05:35:20;18.00;99.90
25214;DHT22;13160;51.834;4.706;2023-07-16T05:38:16;18.00;99.90
25214;DHT22;13160;51.834;4.706;2023-07-16T05:40:44;18.10;99.90
25214;DHT22;13160;51.834;4.706;2023-07-16T05:43:13;18.00;99.90
25214;DHT22;13160;51.834;4.706;2023-07-16T05:45:42;18.10;99.90
25214;DHT22;13160;51.834;4.706;2023-07-16T05:48:11;18.10;99.90
25214;DHT22;13160;51.834;4.706;2023-07-16T05:50:40;18.20;99.90
25214;DHT22;13160;51.834;4.706;2023-07-16T05:53:28;18.10;99.90
25214;DHT22;13160;51.834;4.706;2023-07-16T05:55:59;18.20;99.90
25214;DHT22;13160;51.834;4.706;2023-07-16T05:58:28;18.20;99.90
25214;DHT22;13160;51.834;4.706;2023-07-16T06:00:57;18.20;99.90
25214;DHT22;13160;51.834;4.706;2023-07-16T06:03:26;18.30;99.90
25214;DHT22;13160;51.834;4.706;2023-07-16T06:05:55;18.30;99.90
25214;DHT22;13160;51.834;4.706;2023-07-16T06:08:24;18.30;99.90
25214;DHT22;13160;51.834;4.706;2023-07-16T06:11:05;18.30;99.90
25214;DHT22;13160;51.834;4.706;2023-07-16T06:13:53;18.40;99.90
25214;DHT22;13160;51.834;4.706;2023-07-16T06:16:22;18.40;99.90
25214;DHT22;13160;51.834;4.706;2023-07-16T06:18:52;18.40;99.90
25214;DHT22;13160;51.834;4.706;2023-07-16T06:21:22;18.40;99.90
25214;DHT22;13160;51.834;4.706;2023-07-16T06:23:57;18.50;99.90
25214;DHT22;13160;51.834;4.706;2023-07-16T06:26:30;18.50;99.90
25214;DHT22;13160;51.834;4.706;2023-07-16T06:28:59;18.50;99.90
25214;DHT22;13160;51.834;4.706;2023-07-16T06:31:35;18.60;99.90
25214;DHT22;13160;51.834;4.706;2023-07-16T06:34:04;18.60;99.90
25214;DHT22;13160;51.834;4.706;2023-07-16T06:36:33;18.70;99.90
25214;DHT22;13160;51.834;4.706;2023-07-16T06:39:02;18.70;99.90
25214;DHT22;13160;51.834;4.706;2023-07-16T06:41:34;18.90;99.90
25214;DHT22;13160;51.834;4.706;2023-07-16T06:44:03;19.20;99.90
25214;DHT22;13160;51.834;4.706;2023-07-16T06:46:32;19.60;99.40
25214;DHT22;13160;51.834;4.706;2023-07-16T06:49:00;20.00;98.90
25214;DHT22;13160;51.834;4.706;2023-07-16T06:51:29;20.40;98.40
25214;DHT22;13160;51.834;4.706;2023-07-16T06:53:59;20.70;98.00
25214;DHT22;13160;51.834;4.706;2023-07-16T06:56:28;21.10;97.50
25214;DHT22;13160;51.834;4.706;2023-07-16T06:58:58;21.50;97.00
25214;DHT22;13160;51.834;4.706;2023-07-16T07:01:27;21.80;96.60
25214;DHT22;13160;51.834;4.706;2023-07-16T07:03:55;21.90;96.00
25214;DHT22;13160;51.834;4.706;2023-07-16T07:06:24;22.00;95.60
25214;DHT22;13160;51.834;4.706;2023-07-16T07:08:52;21.90;95.50
25214;DHT22;13160;51.834;4.706;2023-07-16T07:11:21;21.80;95.50
25214;DHT22;13160;51.834;4.706;2023-07-16T07:13:51;21.60;95.50
25214;DHT22;13160;51.834;4.706;2023-07-16T07:16:21;21.60;95.60
25214;DHT22;13160;51.834;4.706;2023-07-16T07:18:50;21.60;95.60
25214;DHT22;13160;51.834;4.706;2023-07-16T07:21:18;21.80;95.50
25214;DHT22;13160;51.834;4.706;2023-07-16T07:23:46;21.90;95.30
25214;DHT22;13160;51.834;4.706;2023-07-16T07:26:15;21.90;95.00
25214;DHT22;13160;51.834;4.706;2023-07-16T07:28:45;21.80;95.10
25214;DHT22;13160;51.834;4.706;2023-07-16T07:31:13;21.60;95.20
25214;DHT22;13160;51.834;4.706;2023-07-16T07:33:43;21.60;95.50
25214;DHT22;13160;51.834;4.706;2023-07-16T07:36:11;21.70;95.40
25214;DHT22;13160;51.834;4.706;2023-07-16T07:38:40;21.80;95.30
25214;DHT22;13160;51.834;4.706;2023-07-16T07:41:09;22.00;94.90
25214;DHT22;13160;51.834;4.706;2023-07-16T07:43:40;22.20;94.70
25214;DHT22;13160;51.834;4.706;2023-07-16T07:46:09;22.40;94.40
25214;DHT22;13160;51.834;4.706;2023-07-16T07:48:38;22.60;94.00
25214;DHT22;13160;51.834;4.706;2023-07-16T07:51:08;22.70;93.80
25214;DHT22;13160;51.834;4.706;2023-07-16T07:53:38;22.60;93.70
25214;DHT22;13160;51.834;4.706;2023-07-16T07:56:06;22.50;94.10
25214;DHT22;13160;51.834;4.706;2023-07-16T07:58:35;22.40;93.80
25214;DHT22;13160;51.834;4.706;2023-07-16T08:01:04;22.20;93.90
25214;DHT22;13160;51.834;4.706;2023-07-16T08:03:33;22.10;94.10
25214;DHT22;13160;51.834;4.706;2023-07-16T08:06:03;22.00;94.20
25214;DHT22;13160;51.834;4.706;2023-07-16T08:08:32;21.90;94.40
25214;DHT22;13160;51.834;4.706;2023-07-16T08:11:01;21.80;94.50
25214;DHT22;13160;51.834;4.706;2023-07-16T08:13:29;21.80;94.60
25214;DHT22;13160;51.834;4.706;2023-07-16T08:16:18;21.70;94.70
25214;DHT22;13160;51.834;4.706;2023-07-16T08:18:46;21.70;94.80
25214;DHT22;13160;51.834;4.706;2023-07-16T08:21:19;21.80;94.70
25214;DHT22;13160;51.834;4.706;2023-07-16T08:23:50;21.80;94.50
25214;DHT22;13160;51.834;4.706;2023-07-16T08:26:28;22.00;94.60
25214;DHT22;13160;51.834;4.706;2023-07-16T08:29:24;22.20;94.40
25214;DHT22;13160;51.834;4.706;2023-07-16T08:31:53;22.40;94.10
25214;DHT22;13160;51.834;4.706;2023-07-16T08:34:24;22.30;93.90
25214;DHT22;13160;51.834;4.706;2023-07-16T08:36:54;22.30;93.90
25214;DHT22;13160;51.834;4.706;2023-07-16T08:39:24;22.20;93.90
25214;DHT22;13160;51.834;4.706;2023-07-16T08:41:56;22.20;94.10
25214;DHT22;13160;51.834;4.706;2023-07-16T08:44:26;22.20;94.10
25214;DHT22;13160;51.834;4.706;2023-07-16T08:47:05;22.20;94.20
25214;DHT22;13160;51.834;4.706;2023-07-16T08:49:34;22.30;94.00
25214;DHT22;13160;51.834;4.706;2023-07-16T08:52:05;22.40;93.90
25214;DHT22;13160;51.834;4.706;2023-07-16T08:54:39;22.40;93.70
25214;DHT22;13160;51.834;4.706;2023-07-16T08:57:08;22.40;93.50
25214;DHT22;13160;51.834;4.706;2023-07-16T08:59:37;22.30;93.60
25214;DHT22;13160;51.834;4.706;2023-07-16T09:02:08;22.30;93.60
25214;DHT22;13160;51.834;4.706;2023-07-16T09:04:36;22.30;93.70
25214;DHT22;13160;51.834;4.706;2023-07-16T09:07:05;22.30;93.80
25214;DHT22;13160;51.834;4.706;2023-07-16T09:09:33;22.30;93.70
25214;DHT22;13160;51.834;4.706;2023-07-16T09:12:04;22.40;93.70
25214;DHT22;13160;51.834;4.706;2023-07-16T09:14:36;22.30;93.60
25214;DHT22;13160;51.834;4.706;2023-07-16T09:17:05;22.20;93.70
25214;DHT22;13160;51.834;4.706;2023-07-16T09:19:33;22.10;93.80
25214;DHT22;13160;51.834;4.706;2023-07-16T09:22:02;22.10;93.90
25214;DHT22;13160;51.834;4.706;2023-07-16T09:24:36;22.20;94.20
25214;DHT22;13160;51.834;4.706;2023-07-16T09:27:06;22.20;94.10
25214;DHT22;13160;51.834;4.706;2023-07-16T09:29:38;22.30;94.10
25214;DHT22;13160;51.834;4.706;2023-07-16T09:32:07;22.40;93.90
25214;DHT22;13160;51.834;4.706;2023-07-16T09:34:38;22.60;93.80
25214;DHT22;13160;51.834;4.706;2023-07-16T09:37:07;22.70;93.70
25214;DHT22;13160;51.834;4.706;2023-07-16T09:39:37;22.70;93.60
25214;DHT22;13160;51.834;4.706;2023-07-16T09:42:08;22.80;93.40
25214;DHT22;13160;51.834;4.706;2023-07-16T09:44:36;22.70;93.60
25214;DHT22;13160;51.834;4.706;2023-07-16T09:47:05;22.80;93.40
25214;DHT22;13160;51.834;4.706;2023-07-16T09:49:33;22.80;93.10
25214;DHT22;13160;51.834;4.706;2023-07-16T09:52:03;22.70;93.00
25214;DHT22;13160;51.834;4.706;2023-07-16T09:54:32;22.70;93.00
25214;DHT22;13160;51.834;4.706;2023-07-16T09:57:05;22.60;93.20
25214;DHT22;13160;51.834;4.706;2023-07-16T09:59:36;22.60;93.30
25214;DHT22;13160;51.834;4.706;2023-07-16T10:02:06;22.60;93.30
25214;DHT22;13160;51.834;4.706;2023-07-16T10:04:39;22.60;93.40
25214;DHT22;13160;51.834;4.706;2023-07-16T10:07:21;22.80;93.50
25214;DHT22;13160;51.834;4.706;2023-07-16T10:09:53;23.00;93.20
25214;DHT22;13160;51.834;4.706;2023-07-16T10:12:25;23.00;92.90
25214;DHT22;13160;51.834;4.706;2023-07-16T10:14:56;23.10;92.60
25214;DHT22;13160;51.834;4.706;2023-07-16T10:17:26;23.10;92.40
25214;DHT22;13160;51.834;4.706;2023-07-16T10:19:58;23.00;92.40
25214;DHT22;13160;51.834;4.706;2023-07-16T10:22:37;23.00;92.70
25214;DHT22;13160;51.834;4.706;2023-07-16T10:25:09;23.00;92.90
25214;DHT22;13160;51.834;4.706;2023-07-16T10:27:52;23.10;93.50
25214;DHT22;13160;51.834;4.706;2023-07-16T10:30:21;23.20;93.20
25214;DHT22;13160;51.834;4.706;2023-07-16T10:32:51;23.30;93.10
25214;DHT22;13160;51.834;4.706;2023-07-16T10:35:21;23.40;92.70
25214;DHT22;13160;51.834;4.706;2023-07-16T10:37:50;23.40;92.50
25214;DHT22;13160;51.834;4.706;2023-07-16T10:40:18;23.50;92.40
25214;DHT22;13160;51.834;4.706;2023-07-16T10:42:46;23.50;92.50
25214;DHT22;13160;51.834;4.706;2023-07-16T10:45:16;23.50;92.50
25214;DHT22;13160;51.834;4.706;2023-07-16T10:47:52;23.50;92.60
25214;DHT22;13160;51.834;4.706;2023-07-16T10:50:21;23.50;92.80
25214;DHT22;13160;51.834;4.706;2023-07-16T10:52:51;23.60;92.90
25214;DHT22;13160;51.834;4.706;2023-07-16T10:55:20;23.70;93.30
25214;DHT22;13160;51.834;4.706;2023-07-16T10:57:50;23.80;93.20
25214;DHT22;13160;51.834;4.706;2023-07-16T11:00:22;23.90;92.70
25214;DHT22;13160;51.834;4.706;2023-07-16T11:02:51;23.90;93.10
25214;DHT22;13160;51.834;4.706;2023-07-16T11:05:20;24.00;92.60
25214;DHT22;13160;51.834;4.706;2023-07-16T11:07:49;24.00;92.30
25214;DHT22;13160;51.834;4.706;2023-07-16T11:10:22;24.00;92.00
25214;DHT22;13160;51.834;4.706;2023-07-16T11:12:52;24.10;91.60
25214;DHT22;13160;51.834;4.706;2023-07-16T11:15:31;24.20;91.10
25214;DHT22;13160;51.834;4.706;2023-07-16T11:18:01;24.20;90.90
25214;DHT22;13160;51.834;4.706;2023-07-16T11:20:30;24.10;90.60
25214;DHT22;13160;51.834;4.706;2023-07-16T11:22:59;24.20;90.40
25214;DHT22;13160;51.834;4.706;2023-07-16T11:25:29;24.10;90.50
25214;DHT22;13160;51.834;4.706;2023-07-16T11:27:57;24.20;90.50
25214;DHT22;13160;51.834;4.706;2023-07-16T11:30:26;24.30;90.40
25214;DHT22;13160;51.834;4.706;2023-07-16T11:32:58;24.50;90.00
25214;DHT22;13160;51.834;4.706;2023-07-16T11:35:27;24.60;89.50
25214;DHT22;13160;51.834;4.706;2023-07-16T11:37:55;24.70;89.10
25214;DHT22;13160;51.834;4.706;2023-07-16T11:40:24;24.80;89.20
25214;DHT22;13160;51.834;4.706;2023-07-16T11:42:56;25.00;88.00
25214;DHT22;13160;51.834;4.706;2023-07-16T11:45:26;25.10;87.20
25214;DHT22;13160;51.834;4.706;2023-07-16T11:47:54;25.20;86.30
25214;DHT22;13160;51.834;4.706;2023-07-16T11:50:25;25.20;85.60
25214;DHT22;13160;51.834;4.706;2023-07-16T11:52:55;25.20;84.90
25214;DHT22;13160;51.834;4.706;2023-07-16T11:55:24;25.30;84.50
25214;DHT22;13160;51.834;4.706;2023-07-16T11:57:53;25.30;84.50
25214;DHT22;13160;51.834;4.706;2023-07-16T12:00:23;25.40;84.20
25214;DHT22;13160;51.834;4.706;2023-07-16T12:02:52;25.50;83.60
25214;DHT22;13160;51.834;4.706;2023-07-16T12:05:24;25.60;82.90
25214;DHT22;13160;51.834;4.706;2023-07-16T12:08:12;25.60;82.10
25214;DHT22;13160;51.834;4.706;2023-07-16T12:10:41;25.60;82.00
25214;DHT22;13160;51.834;4.706;2023-07-16T12:13:10;25.70;81.30
25214;DHT22;13160;51.834;4.706;2023-07-16T12:15:38;25.70;80.80
25214;DHT22;13160;51.834;4.706;2023-07-16T12:18:07;25.80;80.10
25214;DHT22;13160;51.834;4.706;2023-07-16T12:20:37;25.80;79.40
25214;DHT22;13160;51.834;4.706;2023-07-16T12:23:07;25.80;79.00
25214;DHT22;13160;51.834;4.706;2023-07-16T12:25:35;25.80;78.20
25214;DHT22;13160;51.834;4.706;2023-07-16T12:28:10;25.80;78.60
25214;DHT22;13160;51.834;4.706;2023-07-16T12:30:39;25.90;77.80
25214;DHT22;13160;51.834;4.706;2023-07-16T12:33:07;25.90;78.00
25214;DHT22;13160;51.834;4.706;2023-07-16T12:35:38;25.90;77.70
25214;DHT22;13160;51.834;4.706;2023-07-16T12:38:06;25.90;77.40
25214;DHT22;13160;51.834;4.706;2023-07-16T12:40:34;25.90;77.70
25214;DHT22;13160;51.834;4.706;2023-07-16T12:43:07;25.90;77.80
25214;DHT22;13160;51.834;4.706;2023-07-16T12:45:36;26.00;77.20
25214;DHT22;13160;51.834;4.706;2023-07-16T12:48:04;26.00;77.00
25214;DHT22;13160;51.834;4.706;2023-07-16T12:50:33;26.10;76.80
25214;DHT22;13160;51.834;4.706;2023-07-16T12:53:03;26.20;76.90
25214;DHT22;13160;51.834;4.706;2023-07-16T12:55:31;26.30;76.50
25214;DHT22;13160;51.834;4.706;2023-07-16T12:58:00;26.30;76.10
25214;DHT22;13160;51.834;4.706;2023-07-16T13:00:29;26.30;75.80
25214;DHT22;13160;51.834;4.706;2023-07-16T13:02:57;26.30;75.60
25214;DHT22;13160;51.834;4.706;2023-07-16T13:05:25;26.30;74.70
25214;DHT22;13160;51.834;4.706;2023-07-16T13:07:54;26.30;73.40
25214;DHT22;13160;51.834;4.706;2023-07-16T13:10:24;26.20;72.90
25214;DHT22;13160;51.834;4.706;2023-07-16T13:12:52;26.20;73.00
25214;DHT22;13160;51.834;4.706;2023-07-16T13:15:20;26.10;72.60
25214;DHT22;13160;51.834;4.706;2023-07-16T13:17:49;26.10;72.40
25214;DHT22;13160;51.834;4.706;2023-07-16T13:20:18;26.10;72.40
25214;DHT22;13160;51.834;4.706;2023-07-16T13:22:47;26.10;72.30
25214;DHT22;13160;51.834;4.706;2023-07-16T13:25:15;26.10;72.30
25214;DHT22;13160;51.834;4.706;2023-07-16T13:27:45;26.20;72.80
25214;DHT22;13160;51.834;4.706;2023-07-16T13:30:15;26.20;73.30
25214;DHT22;13160;51.834;4.706;2023-07-16T13:32:44;26.30;73.00
25214;DHT22;13160;51.834;4.706;2023-07-16T13:35:13;26.30;73.30
25214;DHT22;13160;51.834;4.706;2023-07-16T13:37:41;26.40;73.70
25214;DHT22;13160;51.834;4.706;2023-07-16T13:40:10;26.50;73.70
25214;DHT22;13160;51.834;4.706;2023-07-16T13:42:39;26.60;73.60
25214;DHT22;13160;51.834;4.706;2023-07-16T13:45:09;26.60;73.60
25214;DHT22;13160;51.834;4.706;2023-07-16T13:47:38;26.60;71.60
25214;DHT22;13160;51.834;4.706;2023-07-16T13:50:07;26.60;71.20
25214;DHT22;13160;51.834;4.706;2023-07-16T13:52:37;26.50;71.60
25214;DHT22;13160;51.834;4.706;2023-07-16T13:55:06;26.50;71.90
25214;DHT22;13160;51.834;4.706;2023-07-16T13:57:34;26.50;71.30
25214;DHT22;13160;51.834;4.706;2023-07-16T14:00:04;26.50;71.40
25214;DHT22;13160;51.834;4.706;2023-07-16T14:02:38;26.50;71.30
25214;DHT22;13160;51.834;4.706;2023-07-16T14:05:07;26.40;71.40
25214;DHT22;13160;51.834;4.706;2023-07-16T14:07:39;26.30;71.10
25214;DHT22;13160;51.834;4.706;2023-07-16T14:10:08;26.20;71.30
25214;DHT22;13160;51.834;4.706;2023-07-16T14:12:37;26.10;71.60
25214;DHT22;13160;51.834;4.706;2023-07-16T14:15:06;25.90;72.20
25214;DHT22;13160;51.834;4.706;2023-07-16T14:17:35;25.80;72.80
25214;DHT22;13160;51.834;4.706;2023-07-16T14:20:06;25.70;73.40
25214;DHT22;13160;51.834;4.706;2023-07-16T14:22:35;25.60;73.70
25214;DHT22;13160;51.834;4.706;2023-07-16T14:25:05;25.50;73.40
25214;DHT22;13160;51.834;4.706;2023-07-16T14:27:37;25.50;72.90
25214;DHT22;13160;51.834;4.706;2023-07-16T14:30:07;25.40;72.70
25214;DHT22;13160;51.834;4.706;2023-07-16T14:32:37;25.30;73.10
25214;DHT22;13160;51.834;4.706;2023-07-16T14:35:09;25.20;74.40
25214;DHT22;13160;51.834;4.706;2023-07-16T14:38:00;25.20;74.90
25214;DHT22;13160;51.834;4.706;2023-07-16T14:40:29;25.20;74.90
25214;DHT22;13160;51.834;4.706;2023-07-16T14:42:57;25.20;74.90
25214;DHT22;13160;51.834;4.706;2023-07-16T14:45:25;25.30;75.30
25214;DHT22;13160;51.834;4.706;2023-07-16T14:47:54;25.30;76.40
25214;DHT22;13160;51.834;4.706;2023-07-16T14:50:24;25.30;76.00
25214;DHT22;13160;51.834;4.706;2023-07-16T14:52:54;25.20;76.20
25214;DHT22;13160;51.834;4.706;2023-07-16T14:55:24;25.20;76.90
25214;DHT22;13160;51.834;4.706;2023-07-16T14:57:52;25.20;76.50
25214;DHT22;13160;51.834;4.706;2023-07-16T15:00:21;25.20;76.20
25214;DHT22;13160;51.834;4.706;2023-07-16T15:02:50;25.30;76.80
25214;DHT22;13160;51.834;4.706;2023-07-16T15:05:18;25.40;76.90
25214;DHT22;13160;51.834;4.706;2023-07-16T15:07:49;25.40;77.00
25214;DHT22;13160;51.834;4.706;2023-07-16T15:10:17;25.40;77.70
25214;DHT22;13160;51.834;4.706;2023-07-16T15:12:46;25.30;77.30
25214;DHT22;13160;51.834;4.706;2023-07-16T15:15:14;25.30;76.50
25214;DHT22;13160;51.834;4.706;2023-07-16T15:17:43;25.20;76.00
25214;DHT22;13160;51.834;4.706;2023-07-16T15:20:12;25.10;78.10
25214;DHT22;13160;51.834;4.706;2023-07-16T15:22:44;25.00;78.70
25214;DHT22;13160;51.834;4.706;2023-07-16T15:25:30;25.00;78.40
25214;DHT22;13160;51.834;4.706;2023-07-16T15:27:58;25.00;78.60
25214;DHT22;13160;51.834;4.706;2023-07-16T15:30:27;24.90;78.80
25214;DHT22;13160;51.834;4.706;2023-07-16T15:32:55;24.90;79.10
25214;DHT22;13160;51.834;4.706;2023-07-16T15:35:24;24.80;79.60
25214;DHT22;13160;51.834;4.706;2023-07-16T15:37:52;24.80;80.00
25214;DHT22;13160;51.834;4.706;2023-07-16T15:40:23;24.70;80.50
25214;DHT22;13160;51.834;4.706;2023-07-16T15:42:53;24.60;81.80
25214;DHT22;13160;51.834;4.706;2023-07-16T15:45:22;24.60;81.40
25214;DHT22;13160;51.834;4.706;2023-07-16T15:47:51;24.60;81.30
25214;DHT22;13160;51.834;4.706;2023-07-16T15:50:25;24.60;81.50
25214;DHT22;13160;51.834;4.706;2023-07-16T15:52:54;24.60;81.40
25214;DHT22;13160;51.834;4.706;2023-07-16T15:55:23;24.60;80.80
25214;DHT22;13160;51.834;4.706;2023-07-16T15:57:54;24.60;80.60